Terminal Aerodrome Forecast
Issued by NWS Boston, MA

Home | Current Version | Previous Version | Text Only | Print | Product List | Glossary On
Versions: 1 2 3 4 5 6 7 8 9 10 11 12 13 14 15 16 17 18 19 20 21 22 23 24 25 26 27 28
000
FTUS41 KBOX 230547 RRA
TAFBOS
TAF
KBOS 230547Z 2306/2412 00000KT P6SM OVC007
     FM230800 00000KT 1/2SM FG OVC003
     FM231400 17003KT 1SM BR BKN003
     FM231600 16005KT P6SM BKN008
     FM232100 15006KT P6SM BKN035
     FM240900 15010G23KT P6SM VCSH OVC020=

USA.gov is the U.S. government's official web portal to all federal, state and local government web resources and services.